sensor_id;sensor_type;location;lat;lon;timestamp;P1;durP1;ratioP1;P2;durP2;ratioP2
26106;SDS011;13866;50.748;12.630;2024-03-07T00:00:04;26.20;;;15.40;;
26106;SDS011;13866;50.748;12.630;2024-03-07T00:02:41;18.27;;;15.77;;
26106;SDS011;13866;50.748;12.630;2024-03-07T00:05:07;18.70;;;15.20;;
26106;SDS011;13866;50.748;12.630;2024-03-07T00:07:33;18.20;;;16.20;;
26106;SDS011;13866;50.748;12.630;2024-03-07T00:09:59;19.10;;;17.20;;
26106;SDS011;13866;50.748;12.630;2024-03-07T00:12:25;18.30;;;16.30;;
26106;SDS011;13866;50.748;12.630;2024-03-07T00:14:52;16.53;;;15.10;;
26106;SDS011;13866;50.748;12.630;2024-03-07T00:17:17;22.47;;;18.00;;
26106;SDS011;13866;50.748;12.630;2024-03-07T00:19:44;17.33;;;14.70;;
26106;SDS011;13866;50.748;12.630;2024-03-07T00:22:10;17.43;;;15.70;;
26106;SDS011;13866;50.748;12.630;2024-03-07T00:24:35;19.73;;;17.63;;
26106;SDS011;13866;50.748;12.630;2024-03-07T00:27:02;20.77;;;16.43;;
26106;SDS011;13866;50.748;12.630;2024-03-07T00:29:28;16.83;;;15.17;;
26106;SDS011;13866;50.748;12.630;2024-03-07T00:31:54;18.40;;;16.70;;
26106;SDS011;13866;50.748;12.630;2024-03-07T00:34:19;19.20;;;16.87;;
26106;SDS011;13866;50.748;12.630;2024-03-07T00:36:45;20.13;;;18.03;;
26106;SDS011;13866;50.748;12.630;2024-03-07T00:39:11;20.90;;;18.73;;
26106;SDS011;13866;50.748;12.630;2024-03-07T00:41:40;20.63;;;18.43;;
26106;SDS011;13866;50.748;12.630;2024-03-07T00:44:09;21.37;;;19.03;;
26106;SDS011;13866;50.748;12.630;2024-03-07T00:46:35;24.23;;;18.20;;
26106;SDS011;13866;50.748;12.630;2024-03-07T00:49:01;23.83;;;18.30;;
26106;SDS011;13866;50.748;12.630;2024-03-07T00:51:27;18.90;;;16.90;;
26106;SDS011;13866;50.748;12.630;2024-03-07T00:53:53;20.10;;;17.70;;
26106;SDS011;13866;50.748;12.630;2024-03-07T00:56:19;20.43;;;18.00;;
26106;SDS011;13866;50.748;12.630;2024-03-07T00:58:46;20.53;;;18.40;;
26106;SDS011;13866;50.748;12.630;2024-03-07T01:01:13;23.50;;;18.83;;
26106;SDS011;13866;50.748;12.630;2024-03-07T01:03:40;19.73;;;17.60;;
26106;SDS011;13866;50.748;12.630;2024-03-07T01:06:05;22.27;;;18.90;;
26106;SDS011;13866;50.748;12.630;2024-03-07T01:08:31;19.87;;;17.73;;
26106;SDS011;13866;50.748;12.630;2024-03-07T01:10:57;21.20;;;19.00;;
26106;SDS011;13866;50.748;12.630;2024-03-07T01:13:23;20.33;;;18.20;;
26106;SDS011;13866;50.748;12.630;2024-03-07T01:15:49;21.57;;;18.90;;
26106;SDS011;13866;50.748;12.630;2024-03-07T01:18:15;23.50;;;18.40;;
26106;SDS011;13866;50.748;12.630;2024-03-07T01:20:40;21.33;;;19.03;;
26106;SDS011;13866;50.748;12.630;2024-03-07T01:23:06;21.23;;;18.90;;
26106;SDS011;13866;50.748;12.630;2024-03-07T01:25:33;21.10;;;17.43;;
26106;SDS011;13866;50.748;12.630;2024-03-07T01:28:02;19.87;;;17.77;;
26106;SDS011;13866;50.748;12.630;2024-03-07T01:30:29;20.50;;;17.50;;
26106;SDS011;13866;50.748;12.630;2024-03-07T01:32:54;23.93;;;19.20;;
26106;SDS011;13866;50.748;12.630;2024-03-07T01:35:20;21.00;;;18.80;;
26106;SDS011;13866;50.748;12.630;2024-03-07T01:37:45;21.50;;;18.10;;
26106;SDS011;13866;50.748;12.630;2024-03-07T01:40:11;21.93;;;19.17;;
26106;SDS011;13866;50.748;12.630;2024-03-07T01:42:39;20.97;;;18.57;;
26106;SDS011;13866;50.748;12.630;2024-03-07T01:45:05;21.63;;;18.10;;
26106;SDS011;13866;50.748;12.630;2024-03-07T01:47:31;22.67;;;19.60;;
26106;SDS011;13866;50.748;12.630;2024-03-07T01:49:56;20.83;;;18.23;;
26106;SDS011;13866;50.748;12.630;2024-03-07T01:52:23;23.97;;;19.40;;
26106;SDS011;13866;50.748;12.630;2024-03-07T01:54:49;20.43;;;18.27;;
26106;SDS011;13866;50.748;12.630;2024-03-07T01:57:16;28.17;;;20.77;;
26106;SDS011;13866;50.748;12.630;2024-03-07T01:59:43;22.40;;;19.13;;
26106;SDS011;13866;50.748;12.630;2024-03-07T02:02:10;22.40;;;18.77;;
26106;SDS011;13866;50.748;12.630;2024-03-07T02:04:35;21.47;;;18.40;;
26106;SDS011;13866;50.748;12.630;2024-03-07T02:07:01;21.73;;;19.40;;
26106;SDS011;13866;50.748;12.630;2024-03-07T02:09:26;23.00;;;19.23;;
26106;SDS011;13866;50.748;12.630;2024-03-07T02:11:52;25.67;;;20.60;;
26106;SDS011;13866;50.748;12.630;2024-03-07T02:14:17;20.50;;;18.37;;
26106;SDS011;13866;50.748;12.630;2024-03-07T02:16:42;22.03;;;19.73;;
26106;SDS011;13866;50.748;12.630;2024-03-07T02:19:10;26.93;;;20.57;;
26106;SDS011;13866;50.748;12.630;2024-03-07T02:21:39;27.00;;;21.37;;
26106;SDS011;13866;50.748;12.630;2024-03-07T02:24:06;29.40;;;20.87;;
26106;SDS011;13866;50.748;12.630;2024-03-07T02:26:31;32.90;;;21.20;;
26106;SDS011;13866;50.748;12.630;2024-03-07T02:28:57;28.03;;;20.87;;
26106;SDS011;13866;50.748;12.630;2024-03-07T02:31:23;26.90;;;21.47;;
26106;SDS011;13866;50.748;12.630;2024-03-07T02:34:00;29.50;;;21.67;;
26106;SDS011;13866;50.748;12.630;2024-03-07T02:36:26;28.17;;;20.97;;
26106;SDS011;13866;50.748;12.630;2024-03-07T02:38:52;31.27;;;21.30;;
26106;SDS011;13866;50.748;12.630;2024-03-07T02:41:17;34.43;;;23.67;;
26106;SDS011;13866;50.748;12.630;2024-03-07T02:43:43;28.70;;;22.23;;
26106;SDS011;13866;50.748;12.630;2024-03-07T02:46:08;33.53;;;21.77;;
26106;SDS011;13866;50.748;12.630;2024-03-07T02:48:36;32.63;;;22.70;;
26106;SDS011;13866;50.748;12.630;2024-03-07T02:51:06;27.83;;;21.77;;
26106;SDS011;13866;50.748;12.630;2024-03-07T02:53:31;28.10;;;22.60;;
26106;SDS011;13866;50.748;12.630;2024-03-07T02:55:57;28.63;;;22.30;;
26106;SDS011;13866;50.748;12.630;2024-03-07T02:58:23;32.50;;;24.13;;
26106;SDS011;13866;50.748;12.630;2024-03-07T03:00:49;30.63;;;23.47;;
26106;SDS011;13866;50.748;12.630;2024-03-07T03:03:24;28.70;;;23.23;;
26106;SDS011;13866;50.748;12.630;2024-03-07T03:05:50;32.77;;;22.13;;
26106;SDS011;13866;50.748;12.630;2024-03-07T03:08:16;43.23;;;23.27;;
26106;SDS011;13866;50.748;12.630;2024-03-07T03:10:42;39.27;;;24.93;;
26106;SDS011;13866;50.748;12.630;2024-03-07T03:13:09;37.10;;;25.13;;
26106;SDS011;13866;50.748;12.630;2024-03-07T03:15:34;39.37;;;25.50;;
26106;SDS011;13866;50.748;12.630;2024-03-07T03:18:00;31.67;;;24.07;;
26106;SDS011;13866;50.748;12.630;2024-03-07T03:20:26;38.30;;;25.20;;
26106;SDS011;13866;50.748;12.630;2024-03-07T03:22:58;38.57;;;26.60;;
26106;SDS011;13866;50.748;12.630;2024-03-07T03:25:25;46.20;;;24.10;;
26106;SDS011;13866;50.748;12.630;2024-03-07T03:27:51;33.00;;;24.90;;
26106;SDS011;13866;50.748;12.630;2024-03-07T03:30:17;45.67;;;27.93;;
26106;SDS011;13866;50.748;12.630;2024-03-07T03:32:46;31.83;;;24.90;;
26106;SDS011;13866;50.748;12.630;2024-03-07T03:35:13;41.87;;;24.87;;
26106;SDS011;13866;50.748;12.630;2024-03-07T03:37:40;49.93;;;26.87;;
26106;SDS011;13866;50.748;12.630;2024-03-07T03:40:07;31.47;;;24.93;;
26106;SDS011;13866;50.748;12.630;2024-03-07T03:42:34;38.13;;;25.43;;
26106;SDS011;13866;50.748;12.630;2024-03-07T03:45:01;47.20;;;26.57;;
26106;SDS011;13866;50.748;12.630;2024-03-07T03:47:28;34.90;;;24.07;;
26106;SDS011;13866;50.748;12.630;2024-03-07T03:49:54;47.97;;;26.40;;
26106;SDS011;13866;50.748;12.630;2024-03-07T03:52:20;36.77;;;24.20;;
26106;SDS011;13866;50.748;12.630;2024-03-07T03:54:46;50.47;;;27.27;;
26106;SDS011;13866;50.748;12.630;2024-03-07T03:57:11;33.00;;;25.00;;
26106;SDS011;13866;50.748;12.630;2024-03-07T03:59:37;35.90;;;26.30;;
26106;SDS011;13866;50.748;12.630;2024-03-07T04:02:03;41.27;;;28.13;;
26106;SDS011;13866;50.748;12.630;2024-03-07T04:04:29;41.57;;;27.50;;
26106;SDS011;13866;50.748;12.630;2024-03-07T04:06:55;39.87;;;25.50;;
26106;SDS011;13866;50.748;12.630;2024-03-07T04:09:20;38.97;;;27.10;;
26106;SDS011;13866;50.748;12.630;2024-03-07T04:11:46;36.03;;;27.80;;
26106;SDS011;13866;50.748;12.630;2024-03-07T04:14:11;36.07;;;26.30;;
26106;SDS011;13866;50.748;12.630;2024-03-07T04:16:37;35.10;;;26.33;;
26106;SDS011;13866;50.748;12.630;2024-03-07T04:19:03;36.63;;;25.50;;
26106;SDS011;13866;50.748;12.630;2024-03-07T04:21:29;43.07;;;25.60;;
26106;SDS011;13866;50.748;12.630;2024-03-07T04:23:54;44.40;;;27.50;;
26106;SDS011;13866;50.748;12.630;2024-03-07T04:26:19;48.87;;;28.83;;
26106;SDS011;13866;50.748;12.630;2024-03-07T04:28:45;43.60;;;27.47;;
26106;SDS011;13866;50.748;12.630;2024-03-07T04:31:10;41.70;;;27.57;;
26106;SDS011;13866;50.748;12.630;2024-03-07T04:33:37;49.30;;;27.93;;
26106;SDS011;13866;50.748;12.630;2024-03-07T04:36:02;38.10;;;26.53;;
26106;SDS011;13866;50.748;12.630;2024-03-07T04:38:28;40.43;;;26.73;;
26106;SDS011;13866;50.748;12.630;2024-03-07T04:40:53;43.70;;;28.30;;
26106;SDS011;13866;50.748;12.630;2024-03-07T04:43:19;40.60;;;27.03;;
26106;SDS011;13866;50.748;12.630;2024-03-07T04:45:46;37.57;;;28.90;;
26106;SDS011;13866;50.748;12.630;2024-03-07T04:48:12;43.30;;;29.77;;
26106;SDS011;13866;50.748;12.630;2024-03-07T04:50:38;47.00;;;27.73;;
26106;SDS011;13866;50.748;12.630;2024-03-07T04:53:04;42.70;;;31.50;;
26106;SDS011;13866;50.748;12.630;2024-03-07T04:55:30;56.80;;;32.23;;
26106;SDS011;13866;50.748;12.630;2024-03-07T04:57:56;43.30;;;28.27;;
26106;SDS011;13866;50.748;12.630;2024-03-07T05:00:22;52.80;;;30.50;;
26106;SDS011;13866;50.748;12.630;2024-03-07T05:02:48;45.90;;;29.47;;
26106;SDS011;13866;50.748;12.630;2024-03-07T05:05:15;50.70;;;29.47;;
26106;SDS011;13866;50.748;12.630;2024-03-07T05:07:46;48.57;;;31.97;;
26106;SDS011;13866;50.748;12.630;2024-03-07T05:10:14;53.50;;;33.00;;
26106;SDS011;13866;50.748;12.630;2024-03-07T05:12:40;52.43;;;31.00;;
26106;SDS011;13866;50.748;12.630;2024-03-07T05:15:05;57.37;;;30.43;;
26106;SDS011;13866;50.748;12.630;2024-03-07T05:17:34;49.80;;;30.90;;
26106;SDS011;13866;50.748;12.630;2024-03-07T05:20:02;42.63;;;29.63;;
26106;SDS011;13866;50.748;12.630;2024-03-07T05:22:34;51.60;;;30.40;;
26106;SDS011;13866;50.748;12.630;2024-03-07T05:25:04;47.40;;;30.63;;
26106;SDS011;13866;50.748;12.630;2024-03-07T05:27:30;51.10;;;31.53;;
26106;SDS011;13866;50.748;12.630;2024-03-07T05:29:56;44.57;;;30.47;;
26106;SDS011;13866;50.748;12.630;2024-03-07T05:32:23;43.73;;;28.47;;
26106;SDS011;13866;50.748;12.630;2024-03-07T05:34:50;46.13;;;30.03;;
26106;SDS011;13866;50.748;12.630;2024-03-07T05:37:16;45.07;;;31.87;;
26106;SDS011;13866;50.748;12.630;2024-03-07T05:39:41;53.40;;;31.63;;
26106;SDS011;13866;50.748;12.630;2024-03-07T05:42:07;44.23;;;32.30;;
26106;SDS011;13866;50.748;12.630;2024-03-07T05:44:33;47.47;;;30.80;;
26106;SDS011;13866;50.748;12.630;2024-03-07T05:46:58;57.03;;;32.10;;
26106;SDS011;13866;50.748;12.630;2024-03-07T05:49:24;48.90;;;31.67;;
26106;SDS011;13866;50.748;12.630;2024-03-07T05:51:49;51.77;;;31.00;;
26106;SDS011;13866;50.748;12.630;2024-03-07T05:54:15;52.33;;;32.37;;
26106;SDS011;13866;50.748;12.630;2024-03-07T05:56:40;51.40;;;33.00;;
26106;SDS011;13866;50.748;12.630;2024-03-07T05:59:06;55.17;;;32.10;;
26106;SDS011;13866;50.748;12.630;2024-03-07T06:01:34;49.20;;;30.93;;
26106;SDS011;13866;50.748;12.630;2024-03-07T06:04:04;72.80;;;35.63;;
26106;SDS011;13866;50.748;12.630;2024-03-07T06:06:31;55.30;;;33.33;;
26106;SDS011;13866;50.748;12.630;2024-03-07T06:08:58;131.93;;;41.03;;
26106;SDS011;13866;50.748;12.630;2024-03-07T06:11:25;112.20;;;45.50;;
26106;SDS011;13866;50.748;12.630;2024-03-07T06:13:50;92.63;;;41.07;;
26106;SDS011;13866;50.748;12.630;2024-03-07T06:16:16;104.57;;;40.87;;
26106;SDS011;13866;50.748;12.630;2024-03-07T06:18:43;95.10;;;39.83;;
26106;SDS011;13866;50.748;12.630;2024-03-07T06:21:10;97.90;;;40.93;;
26106;SDS011;13866;50.748;12.630;2024-03-07T06:23:35;93.57;;;38.00;;
26106;SDS011;13866;50.748;12.630;2024-03-07T06:26:01;98.77;;;37.23;;
26106;SDS011;13866;50.748;12.630;2024-03-07T06:28:31;117.50;;;40.93;;
26106;SDS011;13866;50.748;12.630;2024-03-07T06:30:57;103.70;;;40.13;;
26106;SDS011;13866;50.748;12.630;2024-03-07T06:33:22;88.97;;;34.77;;
26106;SDS011;13866;50.748;12.630;2024-03-07T06:35:48;108.50;;;37.97;;
26106;SDS011;13866;50.748;12.630;2024-03-07T06:38:13;127.00;;;36.87;;
26106;SDS011;13866;50.748;12.630;2024-03-07T06:40:39;137.73;;;39.53;;
26106;SDS011;13866;50.748;12.630;2024-03-07T06:43:07;99.87;;;38.83;;
26106;SDS011;13866;50.748;12.630;2024-03-07T06:45:35;77.20;;;38.40;;
26106;SDS011;13866;50.748;12.630;2024-03-07T06:48:01;77.13;;;40.43;;
26106;SDS011;13866;50.748;12.630;2024-03-07T06:50:33;90.03;;;40.43;;
26106;SDS011;13866;50.748;12.630;2024-03-07T06:53:02;65.13;;;37.37;;
26106;SDS011;13866;50.748;12.630;2024-03-07T06:55:28;76.17;;;37.77;;
26106;SDS011;13866;50.748;12.630;2024-03-07T06:57:54;61.43;;;37.07;;
26106;SDS011;13866;50.748;12.630;2024-03-07T07:00:19;68.63;;;38.80;;
26106;SDS011;13866;50.748;12.630;2024-03-07T07:02:46;66.57;;;40.33;;
26106;SDS011;13866;50.748;12.630;2024-03-07T07:05:12;62.70;;;37.70;;
26106;SDS011;13866;50.748;12.630;2024-03-07T07:07:40;60.07;;;38.10;;
26106;SDS011;13866;50.748;12.630;2024-03-07T07:10:06;65.93;;;38.00;;
26106;SDS011;13866;50.748;12.630;2024-03-07T07:12:35;61.93;;;38.20;;
26106;SDS011;13866;50.748;12.630;2024-03-07T07:15:00;76.70;;;40.87;;
26106;SDS011;13866;50.748;12.630;2024-03-07T07:17:26;59.37;;;38.10;;
26106;SDS011;13866;50.748;12.630;2024-03-07T07:19:53;60.93;;;36.93;;
26106;SDS011;13866;50.748;12.630;2024-03-07T07:22:20;58.33;;;39.57;;
26106;SDS011;13866;50.748;12.630;2024-03-07T07:24:46;58.23;;;36.77;;
26106;SDS011;13866;50.748;12.630;2024-03-07T07:27:11;60.00;;;37.77;;
26106;SDS011;13866;50.748;12.630;2024-03-07T07:29:37;62.87;;;36.40;;
26106;SDS011;13866;50.748;12.630;2024-03-07T07:32:02;57.47;;;38.13;;
26106;SDS011;13866;50.748;12.630;2024-03-07T07:34:28;49.57;;;34.03;;
26106;SDS011;13866;50.748;12.630;2024-03-07T07:36:55;48.63;;;32.80;;
26106;SDS011;13866;50.748;12.630;2024-03-07T07:39:21;46.47;;;33.50;;
26106;SDS011;13866;50.748;12.630;2024-03-07T07:41:46;42.87;;;30.00;;
26106;SDS011;13866;50.748;12.630;2024-03-07T07:44:12;39.63;;;31.07;;
26106;SDS011;13866;50.748;12.630;2024-03-07T07:46:38;48.73;;;30.70;;
26106;SDS011;13866;50.748;12.630;2024-03-07T07:49:05;44.80;;;28.07;;
26106;SDS011;13866;50.748;12.630;2024-03-07T07:51:31;42.90;;;30.80;;
26106;SDS011;13866;50.748;12.630;2024-03-07T07:53:56;49.50;;;28.63;;
26106;SDS011;13866;50.748;12.630;2024-03-07T07:56:22;35.10;;;24.83;;
26106;SDS011;13866;50.748;12.630;2024-03-07T07:58:49;35.03;;;25.30;;
26106;SDS011;13866;50.748;12.630;2024-03-07T08:01:16;34.13;;;25.00;;
26106;SDS011;13866;50.748;12.630;2024-03-07T08:03:42;31.00;;;24.67;;
26106;SDS011;13866;50.748;12.630;2024-03-07T08:06:08;33.40;;;24.90;;
26106;SDS011;13866;50.748;12.630;2024-03-07T08:08:34;33.10;;;25.10;;
26106;SDS011;13866;50.748;12.630;2024-03-07T08:11:00;25.07;;;22.33;;
26106;SDS011;13866;50.748;12.630;2024-03-07T08:13:26;30.30;;;21.53;;
26106;SDS011;13866;50.748;12.630;2024-03-07T08:15:51;30.57;;;20.93;;
26106;SDS011;13866;50.748;12.630;2024-03-07T08:18:18;33.27;;;21.83;;
26106;SDS011;13866;50.748;12.630;2024-03-07T08:20:45;28.53;;;22.07;;
26106;SDS011;13866;50.748;12.630;2024-03-07T08:23:10;34.23;;;23.07;;
26106;SDS011;13866;50.748;12.630;2024-03-07T08:25:37;24.07;;;21.43;;
26106;SDS011;13866;50.748;12.630;2024-03-07T08:28:07;39.80;;;23.83;;
26106;SDS011;13866;50.748;12.630;2024-03-07T08:30:33;27.30;;;22.13;;
26106;SDS011;13866;50.748;12.630;2024-03-07T08:32:59;34.27;;;22.97;;
26106;SDS011;13866;50.748;12.630;2024-03-07T08:35:28;24.60;;;21.30;;
26106;SDS011;13866;50.748;12.630;2024-03-07T08:37:54;24.50;;;18.80;;
26106;SDS011;13866;50.748;12.630;2024-03-07T08:40:24;22.90;;;17.70;;
26106;SDS011;13866;50.748;12.630;2024-03-07T08:42:51;17.17;;;15.43;;
26106;SDS011;13866;50.748;12.630;2024-03-07T08:45:20;20.90;;;17.53;;
26106;SDS011;13866;50.748;12.630;2024-03-07T08:47:46;20.60;;;18.43;;
26106;SDS011;13866;50.748;12.630;2024-03-07T08:50:13;25.00;;;19.87;;
26106;SDS011;13866;50.748;12.630;2024-03-07T08:52:39;23.20;;;19.43;;
26106;SDS011;13866;50.748;12.630;2024-03-07T08:55:05;36.33;;;21.07;;
26106;SDS011;13866;50.748;12.630;2024-03-07T08:57:35;27.77;;;20.63;;
26106;SDS011;13866;50.748;12.630;2024-03-07T09:00:01;30.63;;;17.50;;
26106;SDS011;13866;50.748;12.630;2024-03-07T09:02:33;22.47;;;17.80;;
26106;SDS011;13866;50.748;12.630;2024-03-07T09:04:59;21.10;;;18.43;;
26106;SDS011;13866;50.748;12.630;2024-03-07T09:07:25;27.23;;;21.13;;
26106;SDS011;13866;50.748;12.630;2024-03-07T09:09:51;27.83;;;21.83;;
26106;SDS011;13866;50.748;12.630;2024-03-07T09:12:16;28.23;;;20.20;;
26106;SDS011;13866;50.748;12.630;2024-03-07T09:14:43;25.57;;;20.63;;
26106;SDS011;13866;50.748;12.630;2024-03-07T09:17:09;24.30;;;19.70;;
26106;SDS011;13866;50.748;12.630;2024-03-07T09:19:34;34.80;;;24.60;;
26106;SDS011;13866;50.748;12.630;2024-03-07T09:22:00;28.37;;;22.37;;
26106;SDS011;13866;50.748;12.630;2024-03-07T09:24:25;30.20;;;23.10;;
26106;SDS011;13866;50.748;12.630;2024-03-07T09:26:51;32.63;;;22.60;;
26106;SDS011;13866;50.748;12.630;2024-03-07T09:29:17;30.00;;;22.70;;
26106;SDS011;13866;50.748;12.630;2024-03-07T09:31:45;31.40;;;23.70;;
26106;SDS011;13866;50.748;12.630;2024-03-07T09:34:12;27.90;;;23.70;;
26106;SDS011;13866;50.748;12.630;2024-03-07T09:36:38;36.40;;;23.83;;
26106;SDS011;13866;50.748;12.630;2024-03-07T09:39:06;26.87;;;23.07;;
26106;SDS011;13866;50.748;12.630;2024-03-07T09:41:33;38.70;;;25.50;;
26106;SDS011;13866;50.748;12.630;2024-03-07T09:43:58;29.83;;;25.07;;
26106;SDS011;13866;50.748;12.630;2024-03-07T09:46:26;34.53;;;26.73;;
26106;SDS011;13866;50.748;12.630;2024-03-07T09:48:52;33.40;;;23.03;;
26106;SDS011;13866;50.748;12.630;2024-03-07T09:51:19;48.23;;;25.30;;
26106;SDS011;13866;50.748;12.630;2024-03-07T09:53:45;28.17;;;22.67;;
26106;SDS011;13866;50.748;12.630;2024-03-07T09:56:14;23.63;;;21.17;;
26106;SDS011;13866;50.748;12.630;2024-03-07T09:58:49;19.73;;;17.63;;
26106;SDS011;13866;50.748;12.630;2024-03-07T10:01:17;21.73;;;18.27;;
26106;SDS011;13866;50.748;12.630;2024-03-07T10:03:45;22.00;;;17.13;;
26106;SDS011;13866;50.748;12.630;2024-03-07T10:06:12;20.23;;;16.03;;
26106;SDS011;13866;50.748;12.630;2024-03-07T10:08:39;18.83;;;16.67;;
26106;SDS011;13866;50.748;12.630;2024-03-07T10:11:07;22.63;;;16.47;;
26106;SDS011;13866;50.748;12.630;2024-03-07T10:13:34;21.33;;;14.90;;
26106;SDS011;13866;50.748;12.630;2024-03-07T10:16:00;15.67;;;13.90;;
26106;SDS011;13866;50.748;12.630;2024-03-07T10:18:26;15.80;;;14.03;;
26106;SDS011;13866;50.748;12.630;2024-03-07T10:20:55;16.17;;;14.50;;
26106;SDS011;13866;50.748;12.630;2024-03-07T10:23:24;14.50;;;13.07;;
26106;SDS011;13866;50.748;12.630;2024-03-07T10:25:50;29.20;;;14.10;;
26106;SDS011;13866;50.748;12.630;2024-03-07T10:28:19;13.90;;;12.40;;
26106;SDS011;13866;50.748;12.630;2024-03-07T10:30:47;17.93;;;14.37;;
26106;SDS011;13866;50.748;12.630;2024-03-07T10:33:15;14.17;;;12.67;;
26106;SDS011;13866;50.748;12.630;2024-03-07T10:35:40;22.90;;;13.07;;
26106;SDS011;13866;50.748;12.630;2024-03-07T10:38:06;17.00;;;13.53;;
26106;SDS011;13866;50.748;12.630;2024-03-07T10:40:32;16.13;;;13.57;;
26106;SDS011;13866;50.748;12.630;2024-03-07T10:43:00;17.93;;;15.27;;
26106;SDS011;13866;50.748;12.630;2024-03-07T10:45:34;19.10;;;15.93;;
26106;SDS011;13866;50.748;12.630;2024-03-07T10:48:12;28.23;;;17.00;;
26106;SDS011;13866;50.748;12.630;2024-03-07T11:01:18;23.57;;;15.93;;
26106;SDS011;13866;50.748;12.630;2024-03-07T11:03:45;21.27;;;16.63;;
26106;SDS011;13866;50.748;12.630;2024-03-07T11:06:11;23.47;;;16.27;;
26106;SDS011;13866;50.748;12.630;2024-03-07T11:08:39;18.07;;;15.50;;
26106;SDS011;13866;50.748;12.630;2024-03-07T11:11:05;16.47;;;14.80;;
26106;SDS011;13866;50.748;12.630;2024-03-07T11:13:31;21.23;;;13.93;;
26106;SDS011;13866;50.748;12.630;2024-03-07T11:15:58;16.70;;;15.00;;
26106;SDS011;13866;50.748;12.630;2024-03-07T11:18:25;18.33;;;15.70;;
26106;SDS011;13866;50.748;12.630;2024-03-07T11:20:51;22.40;;;16.13;;
26106;SDS011;13866;50.748;12.630;2024-03-07T11:23:30;21.73;;;16.53;;
26106;SDS011;13866;50.748;12.630;2024-03-07T11:26:09;20.77;;;15.10;;
26106;SDS011;13866;50.748;12.630;2024-03-07T11:28:36;18.20;;;14.67;;
26106;SDS011;13866;50.748;12.630;2024-03-07T11:31:07;19.33;;;15.20;;
26106;SDS011;13866;50.748;12.630;2024-03-07T11:33:34;15.83;;;14.33;;
26106;SDS011;13866;50.748;12.630;2024-03-07T11:36:01;16.77;;;14.77;;
26106;SDS011;13866;50.748;12.630;2024-03-07T11:38:32;17.90;;;14.30;;
26106;SDS011;13866;50.748;12.630;2024-03-07T11:40:59;22.40;;;15.40;;
26106;SDS011;13866;50.748;12.630;2024-03-07T11:43:27;19.57;;;16.57;;
26106;SDS011;13866;50.748;12.630;2024-03-07T11:45:53;17.20;;;13.93;;
26106;SDS011;13866;50.748;12.630;2024-03-07T11:48:19;18.37;;;13.80;;
26106;SDS011;13866;50.748;12.630;2024-03-07T11:50:46;25.63;;;15.00;;
26106;SDS011;13866;50.748;12.630;2024-03-07T11:53:12;18.67;;;16.00;;
26106;SDS011;13866;50.748;12.630;2024-03-07T11:55:38;16.20;;;14.53;;
26106;SDS011;13866;50.748;12.630;2024-03-07T11:58:15;17.57;;;15.67;;
26106;SDS011;13866;50.748;12.630;2024-03-07T12:00:43;14.20;;;12.60;;
26106;SDS011;13866;50.748;12.630;2024-03-07T12:03:12;17.90;;;14.80;;
26106;SDS011;13866;50.748;12.630;2024-03-07T12:05:40;17.00;;;15.20;;
26106;SDS011;13866;50.748;12.630;2024-03-07T12:08:06;14.57;;;13.07;;
26106;SDS011;13866;50.748;12.630;2024-03-07T12:10:32;14.83;;;13.40;;
26106;SDS011;13866;50.748;12.630;2024-03-07T12:12:58;17.60;;;15.00;;
26106;SDS011;13866;50.748;12.630;2024-03-07T12:15:26;16.60;;;14.10;;
26106;SDS011;13866;50.748;12.630;2024-03-07T12:17:52;17.43;;;14.17;;
26106;SDS011;13866;50.748;12.630;2024-03-07T12:20:18;16.73;;;14.63;;
26106;SDS011;13866;50.748;12.630;2024-03-07T12:22:54;16.13;;;14.27;;
26106;SDS011;13866;50.748;12.630;2024-03-07T12:25:21;16.20;;;13.43;;
26106;SDS011;13866;50.748;12.630;2024-03-07T12:27:47;24.53;;;15.00;;
26106;SDS011;13866;50.748;12.630;2024-03-07T12:30:25;15.93;;;14.00;;
26106;SDS011;13866;50.748;12.630;2024-03-07T12:32:52;21.37;;;14.77;;
26106;SDS011;13866;50.748;12.630;2024-03-07T12:35:18;15.20;;;13.30;;
26106;SDS011;13866;50.748;12.630;2024-03-07T12:37:43;14.50;;;13.10;;
26106;SDS011;13866;50.748;12.630;2024-03-07T12:40:11;16.37;;;13.77;;
26106;SDS011;13866;50.748;12.630;2024-03-07T12:42:42;15.87;;;14.20;;
26106;SDS011;13866;50.748;12.630;2024-03-07T12:45:12;16.50;;;14.80;;
26106;SDS011;13866;50.748;12.630;2024-03-07T12:47:51;16.87;;;14.50;;
26106;SDS011;13866;50.748;12.630;2024-03-07T12:50:19;16.80;;;13.93;;
26106;SDS011;13866;50.748;12.630;2024-03-07T12:52:48;14.77;;;13.17;;
26106;SDS011;13866;50.748;12.630;2024-03-07T12:55:17;15.70;;;14.27;;
26106;SDS011;13866;50.748;12.630;2024-03-07T12:57:48;26.60;;;14.60;;
26106;SDS011;13866;50.748;12.630;2024-03-07T13:00:17;14.63;;;13.03;;
26106;SDS011;13866;50.748;12.630;2024-03-07T13:02:46;22.50;;;14.77;;
26106;SDS011;13866;50.748;12.630;2024-03-07T13:05:12;18.37;;;14.63;;
26106;SDS011;13866;50.748;12.630;2024-03-07T13:07:44;14.40;;;13.03;;
26106;SDS011;13866;50.748;12.630;2024-03-07T13:10:11;22.30;;;15.37;;
26106;SDS011;13866;50.748;12.630;2024-03-07T13:12:39;15.53;;;13.60;;
26106;SDS011;13866;50.748;12.630;2024-03-07T13:15:08;16.37;;;13.43;;
26106;SDS011;13866;50.748;12.630;2024-03-07T13:17:35;15.40;;;13.70;;
26106;SDS011;13866;50.748;12.630;2024-03-07T13:20:01;16.47;;;14.80;;
26106;SDS011;13866;50.748;12.630;2024-03-07T13:22:26;15.37;;;14.07;;
26106;SDS011;13866;50.748;12.630;2024-03-07T13:24:52;17.67;;;14.90;;
26106;SDS011;13866;50.748;12.630;2024-03-07T13:27:18;15.17;;;13.70;;
26106;SDS011;13866;50.748;12.630;2024-03-07T13:29:53;14.13;;;12.90;;
26106;SDS011;13866;50.748;12.630;2024-03-07T13:32:20;15.83;;;12.97;;
26106;SDS011;13866;50.748;12.630;2024-03-07T13:34:46;18.63;;;14.87;;
26106;SDS011;13866;50.748;12.630;2024-03-07T13:37:11;16.13;;;14.47;;
26106;SDS011;13866;50.748;12.630;2024-03-07T13:39:43;14.90;;;13.40;;
26106;SDS011;13866;50.748;12.630;2024-03-07T13:42:08;17.60;;;12.93;;
26106;SDS011;13866;50.748;12.630;2024-03-07T13:44:36;15.37;;;13.90;;
26106;SDS011;13866;50.748;12.630;2024-03-07T13:47:03;15.97;;;14.37;;
26106;SDS011;13866;50.748;12.630;2024-03-07T13:49:30;20.03;;;14.77;;
26106;SDS011;13866;50.748;12.630;2024-03-07T13:51:59;17.00;;;14.37;;
26106;SDS011;13866;50.748;12.630;2024-03-07T13:54:35;16.80;;;14.73;;
26106;SDS011;13866;50.748;12.630;2024-03-07T13:57:14;15.90;;;14.30;;
26106;SDS011;13866;50.748;12.630;2024-03-07T13:59:59;20.13;;;13.87;;
26106;SDS011;13866;50.748;12.630;2024-03-07T14:02:50;19.40;;;14.43;;
26106;SDS011;13866;50.748;12.630;2024-03-07T14:08:47;21.77;;;14.47;;
26106;SDS011;13866;50.748;12.630;2024-03-07T14:22:43;18.07;;;16.27;;
26106;SDS011;13866;50.748;12.630;2024-03-07T14:25:28;21.00;;;16.80;;
26106;SDS011;13866;50.748;12.630;2024-03-07T14:28:48;24.77;;;18.53;;
26106;SDS011;13866;50.748;12.630;2024-03-07T14:31:11;19.90;;;17.60;;
26106;SDS011;13866;50.748;12.630;2024-03-07T14:36:55;27.40;;;18.70;;